Time;durP1;ratioP1;P1;durP2;ratioP2;P2;SDS_P1;SDS_P2;PMS_P1;PMS_P2;Temp;Humidity;BMP_temperature;BMP_pressure;BME280_temperature;BME280_humidity;BME280_pressure;Samples;Min_cycle;Max_cycle;Signal;HPM_P1;HPM_P2
2023/01/04 00:00:14;;;;;;;66.03;39.73;;;6.70;99.90;;;;;;4211795;28;20052;-62
2023/01/04 00:02:15;;;;;;;64.27;37.37;;;6.70;99.90;;;;;;4211563;28;20044;-63
2023/01/04 00:04:16;;;;;;;66.27;38.37;;;6.70;99.90;;;;;;4212196;28;20061;-62
2023/01/04 00:06:18;;;;;;;59.23;37.00;;;6.70;99.90;;;;;;4211058;28;20078;-62
2023/01/04 00:08:19;;;;;;;62.17;38.10;;;6.70;99.90;;;;;;4212200;28;20529;-62
2023/01/04 00:10:20;;;;;;;77.00;44.90;;;6.80;99.90;;;;;;4211073;28;20024;-60
2023/01/04 00:12:22;;;;;;;142.97;66.90;;;6.70;99.90;;;;;;4211996;28;20032;-61
2023/01/04 00:14:23;;;;;;;136.90;71.70;;;6.80;99.90;;;;;;4211067;28;20024;-60
2023/01/04 00:16:26;;;;;;;102.57;55.03;;;6.80;99.90;;;;;;4212325;28;20028;-62
2023/01/04 00:18:29;;;;;;;102.27;54.30;;;6.80;99.90;;;;;;4211155;28;20433;-61
2023/01/04 00:20:30;;;;;;;99.23;51.43;;;6.80;99.90;;;;;;4212174;28;20093;-61
2023/01/04 00:22:34;;;;;;;95.30;50.00;;;6.80;99.90;;;;;;4210821;28;20028;-61
2023/01/04 00:24:35;;;;;;;63.13;31.73;;;6.80;99.90;;;;;;4212152;28;20032;-62
2023/01/04 00:26:36;;;;;;;60.43;32.20;;;6.80;99.90;;;;;;4210630;28;20028;-61
2023/01/04 00:28:38;;;;;;;56.13;30.67;;;6.90;99.90;;;;;;4212023;28;20057;-62
2023/01/04 00:30:39;;;;;;;70.93;35.57;;;6.90;99.90;;;;;;4210125;28;20537;-62
2023/01/04 00:32:41;;;;;;;60.13;33.47;;;6.90;99.90;;;;;;4210576;28;20036;-60
2023/01/04 00:34:42;;;;;;;56.77;30.70;;;6.90;99.90;;;;;;4211626;28;20074;-62
2023/01/04 00:36:44;;;;;;;61.97;34.87;;;6.90;99.90;;;;;;4211194;28;20488;-61
2023/01/04 00:38:45;;;;;;;64.03;36.17;;;6.90;99.90;;;;;;4193154;28;20122;-60
2023/01/04 00:40:46;;;;;;;65.53;37.30;;;7.00;99.90;;;;;;4193952;28;20113;-62
2023/01/04 00:42:47;;;;;;;65.63;35.83;;;7.00;99.90;;;;;;4195245;28;20048;-60
2023/01/04 00:44:48;;;;;;;60.93;34.47;;;7.00;99.90;;;;;;4199730;28;20062;-59
2023/01/04 00:46:49;;;;;;;51.23;30.47;;;7.00;99.90;;;;;;4211743;28;20418;-61
2023/01/04 00:48:51;;;;;;;53.50;31.40;;;7.00;99.90;;;;;;4210647;28;20028;-61
2023/01/04 00:50:52;;;;;;;54.87;31.13;;;6.90;99.90;;;;;;4211604;28;20028;-61
2023/01/04 00:52:53;;;;;;;50.80;30.30;;;6.90;99.90;;;;;;4210578;28;20025;-61
2023/01/04 00:54:55;;;;;;;53.87;30.87;;;7.00;99.90;;;;;;4211884;28;20044;-60
2023/01/04 00:56:57;;;;;;;57.60;32.53;;;6.90;99.90;;;;;;4210729;28;20434;-60
2023/01/04 00:59:00;;;;;;;52.37;30.43;;;7.00;99.90;;;;;;4211812;28;20440;-60
2023/01/04 01:01:05;;;;;;;56.87;29.97;;;6.90;99.90;;;;;;4210164;28;20043;-61
2023/01/04 01:03:07;;;;;;;58.90;29.47;;;7.00;99.90;;;;;;4211584;28;20072;-62
2023/01/04 01:05:09;;;;;;;51.43;28.87;;;7.00;99.90;;;;;;4211037;28;20537;-60
2023/01/04 01:07:10;;;;;;;54.83;29.17;;;6.90;99.90;;;;;;4211007;28;20089;-61
2023/01/04 01:09:11;;;;;;;53.57;28.67;;;6.90;99.90;;;;;;4210781;28;20514;-58
2023/01/04 01:11:13;;;;;;;54.00;30.83;;;6.90;99.90;;;;;;4210655;28;20052;-61
2023/01/04 01:13:14;;;;;;;56.13;31.47;;;6.90;99.90;;;;;;4210855;28;20044;-61
2023/01/04 01:15:15;;;;;;;54.43;33.93;;;6.90;99.90;;;;;;4209832;28;20093;-60
2023/01/04 01:17:16;;;;;;;54.23;32.80;;;6.80;99.90;;;;;;4210980;28;20677;-60
2023/01/04 01:19:17;;;;;;;58.50;34.73;;;6.80;99.90;;;;;;4210297;28;20078;-60
2023/01/04 01:21:22;;;;;;;56.90;33.17;;;6.80;99.90;;;;;;4211409;28;20052;-60
2023/01/04 01:23:23;;;;;;;58.30;33.47;;;6.80;99.90;;;;;;4210641;28;20085;-61
2023/01/04 01:25:24;;;;;;;56.57;34.10;;;6.80;99.90;;;;;;4211284;28;20073;-60
2023/01/04 01:27:25;;;;;;;62.70;34.67;;;6.80;99.90;;;;;;4210289;28;20061;-61
2023/01/04 01:29:26;;;;;;;56.23;32.17;;;6.80;99.90;;;;;;4211133;28;20032;-61
2023/01/04 01:31:28;;;;;;;55.20;29.83;;;6.80;99.90;;;;;;4209167;28;20102;-60
2023/01/04 01:33:29;;;;;;;52.10;29.07;;;6.80;99.90;;;;;;4213749;28;20081;-62
2023/01/04 01:35:32;;;;;;;49.90;28.40;;;6.90;99.90;;;;;;4213332;28;20438;-61
2023/01/04 01:37:33;;;;;;;52.90;27.93;;;6.90;99.90;;;;;;4214196;28;20537;-61
2023/01/04 01:39:34;;;;;;;48.40;28.00;;;6.90;99.90;;;;;;4213857;28;20040;-61
2023/01/04 01:41:35;;;;;;;48.17;28.73;;;6.90;99.90;;;;;;4214014;28;20032;-61
2023/01/04 01:43:47;;;;;;;52.03;29.20;;;6.90;99.90;;;;;;4214323;28;20074;-61
2023/01/04 01:45:56;;;;;;;47.17;26.90;;;6.90;99.90;;;;;;4213915;28;20027;-61
2023/01/04 01:48:25;;;;;;;53.10;28.73;;;6.90;99.90;;;;;;4214204;28;20078;-61
2023/01/04 01:50:37;;;;;;;46.00;28.30;;;6.90;99.90;;;;;;4211173;28;20036;-63
2023/01/04 01:52:40;;;;;;;46.80;28.83;;;6.90;99.90;;;;;;4213705;28;20024;-61
2023/01/04 01:54:45;;;;;;;48.23;29.97;;;7.00;99.90;;;;;;4214354;28;20553;-62
2023/01/04 01:56:49;;;;;;;49.17;30.13;;;6.90;99.90;;;;;;4213678;28;20552;-61
2023/01/04 01:58:54;;;;;;;49.10;30.40;;;6.90;99.90;;;;;;4213372;28;20048;-60
2023/01/04 02:00:56;;;;;;;49.63;30.13;;;7.00;99.90;;;;;;4214111;28;20446;-61
2023/01/04 02:03:18;;;;;;;52.83;32.63;;;6.90;99.90;;;;;;4213382;28;20094;-61
2023/01/04 02:05:20;;;;;;;54.07;31.43;;;6.90;99.90;;;;;;4214238;28;20077;-60
2023/01/04 02:07:25;;;;;;;52.90;31.17;;;6.90;99.90;;;;;;4213378;28;20472;-63
2023/01/04 02:09:28;;;;;;;48.33;29.00;;;6.90;99.90;;;;;;4214049;28;20039;-62
2023/01/04 02:11:30;;;;;;;47.67;27.57;;;6.90;99.90;;;;;;4212887;28;20028;-62
2023/01/04 02:15:59;;;;;;;52.80;28.43;;;6.90;99.90;;;;;;4213728;28;20082;-62
2023/01/04 02:18:25;;;;;;;48.03;28.90;;;6.90;99.90;;;;;;4214006;28;20028;-62
2023/01/04 02:20:47;;;;;;;48.73;29.97;;;6.90;99.90;;;;;;4213321;28;20369;-61
2023/01/04 02:23:27;;;;;;;45.57;27.50;;;7.00;99.90;;;;;;4213105;28;20036;-61
2023/01/04 02:25:47;;;;;;;48.67;27.97;;;7.00;99.90;;;;;;4197627;28;20157;-61
2023/01/04 02:28:16;;;;;;;48.30;26.55;;;7.00;99.90;;;;;;4213138;28;20040;-61
2023/01/04 02:30:42;;;;;;;46.50;28.47;;;7.00;99.90;;;;;;4214183;28;20092;-61
2023/01/04 02:32:50;;;;;;;49.93;29.57;;;7.00;99.90;;;;;;4212769;28;20040;-61
2023/01/04 02:35:29;;;;;;;49.87;28.80;;;7.00;99.90;;;;;;4214048;28;20028;-63
2023/01/04 02:37:33;;;;;;;39.30;25.23;;;7.00;99.90;;;;;;4176261;28;20094;-62
2023/01/04 02:39:48;;;;;;;44.30;26.63;;;7.00;99.90;;;;;;4178145;28;20037;-61
2023/01/04 02:44:51;;;;;;;40.57;24.83;;;6.90;99.90;;;;;;4179329;28;20119;-64
2023/01/04 02:44:58;;;;;;;43.57;26.07;;;7.00;99.90;;;;;;4212483;28;20484;-62
2023/01/04 02:47:16;;;;;;;42.97;24.77;;;7.00;99.90;;;;;;4213976;28;20036;-61
2023/01/04 02:51:37;;;;;;;40.67;24.20;;;7.00;99.90;;;;;;4213578;28;20073;-61
2023/01/04 02:53:39;;;;;;;42.57;25.93;;;7.00;99.90;;;;;;4212484;28;20036;-61
2023/01/04 02:56:05;;;;;;;44.83;25.00;;;7.00;99.90;;;;;;4213925;28;20040;-62
2023/01/04 02:58:30;;;;;;;44.30;26.03;;;7.00;99.90;;;;;;4212090;28;20044;-60
2023/01/04 03:06:16;;;;;;;37.77;22.60;;;7.00;99.90;;;;;;4213056;28;20377;-61
2023/01/04 03:08:30;;;;;;;42.07;23.63;;;7.00;99.90;;;;;;4213140;28;20078;-61
2023/01/04 03:10:52;;;;;;;38.57;23.87;;;7.00;99.90;;;;;;4212705;28;20438;-61
2023/01/04 03:13:11;;;;;;;39.03;23.47;;;7.00;99.90;;;;;;4212100;28;20442;-61
2023/01/04 03:15:22;;;;;;;44.50;26.50;;;7.00;99.90;;;;;;4212238;28;20693;-61
2023/01/04 03:17:25;;;;;;;39.63;24.33;;;7.00;99.90;;;;;;4213312;28;20081;-61
2023/01/04 03:21:46;;;;;;;44.20;25.48;;;7.00;99.90;;;;;;4212946;28;20101;-61
2023/01/04 03:36:14;;;;;;;42.38;25.15;;;7.00;99.90;;;;;;4212884;28;20093;-60
2023/01/04 03:48:28;;;;;;;42.63;24.37;;;7.00;99.90;;;;;;4213010;28;20046;-60
2023/01/04 03:50:40;;;;;;;37.67;24.10;;;7.00;99.90;;;;;;4208194;28;20052;-60
2023/01/04 03:52:44;;;;;;;41.63;24.37;;;7.00;99.90;;;;;;4212566;28;20480;-61
2023/01/04 03:54:47;;;;;;;36.53;22.13;;;7.00;99.90;;;;;;4211087;28;20028;-62
2023/01/04 03:56:51;;;;;;;36.50;22.90;;;7.00;99.90;;;;;;4212663;28;20074;-62
2023/01/04 03:58:53;;;;;;;38.77;23.43;;;7.00;99.90;;;;;;4210729;28;20024;-61
2023/01/04 04:01:02;;;;;;;34.90;21.00;;;7.00;99.90;;;;;;4212330;28;20438;-61
2023/01/04 04:03:06;;;;;;;34.23;19.93;;;7.00;99.90;;;;;;4211234;28;20056;-61
2023/01/04 04:09:53;;;;;;;30.37;17.87;;;7.00;99.90;;;;;;4212632;28;20093;-60
2023/01/04 04:11:55;;;;;;;26.40;16.97;;;7.00;99.90;;;;;;4210898;28;20104;-62
2023/01/04 04:13:56;;;;;;;26.63;16.20;;;7.00;99.90;;;;;;4211927;28;20074;-61
2023/01/04 04:15:57;;;;;;;25.53;16.13;;;7.00;99.90;;;;;;4211329;28;20438;-60
2023/01/04 04:17:59;;;;;;;24.13;15.27;;;7.00;99.90;;;;;;4212496;28;20036;-60
2023/01/04 04:20:00;;;;;;;26.10;16.23;;;7.00;99.90;;;;;;4211096;28;20081;-61
2023/01/04 04:22:02;;;;;;;27.43;17.50;;;7.00;99.90;;;;;;4210628;28;20056;-61
2023/01/04 04:24:04;;;;;;;30.67;18.10;;;7.00;99.90;;;;;;4210722;28;21049;-62
2023/01/04 04:26:06;;;;;;;28.57;17.37;;;7.10;99.90;;;;;;4211589;28;20055;-62
2023/01/04 04:28:07;;;;;;;27.03;17.57;;;7.10;99.90;;;;;;4211609;28;20082;-61
2023/01/04 04:30:08;;;;;;;27.70;18.33;;;7.10;99.90;;;;;;4211537;28;20036;-62
2023/01/04 04:32:09;;;;;;;29.70;19.37;;;7.10;99.90;;;;;;4211652;28;20036;-61
2023/01/04 04:34:11;;;;;;;32.53;19.20;;;7.10;99.90;;;;;;4210814;28;20101;-62
2023/01/04 04:36:12;;;;;;;32.37;18.97;;;7.10;99.90;;;;;;4212079;28;20433;-62
2023/01/04 04:38:13;;;;;;;35.63;20.60;;;7.10;99.90;;;;;;4210865;28;20020;-61
2023/01/04 04:42:38;;;;;;;30.60;17.83;;;7.10;99.90;;;;;;4190452;28;20145;-62
2023/01/04 04:44:39;;;;;;;25.23;15.83;;;7.10;99.90;;;;;;4210459;28;20080;-61
2023/01/04 04:46:42;;;;;;;24.43;15.93;;;7.00;99.90;;;;;;4210343;28;20089;-61
2023/01/04 04:48:43;;;;;;;22.07;14.40;;;6.90;99.90;;;;;;4211650;28;20497;-59
2023/01/04 04:50:44;;;;;;;19.87;13.67;;;7.00;99.90;;;;;;4210362;28;20073;-61
2023/01/04 04:52:45;;;;;;;22.07;13.70;;;7.00;99.90;;;;;;4211712;28;20028;-61
2023/01/04 04:54:46;;;;;;;22.13;13.77;;;6.90;99.90;;;;;;4210345;28;20032;-61
2023/01/04 04:56:48;;;;;;;20.63;12.80;;;6.90;99.90;;;;;;4211884;28;20573;-61
2023/01/04 04:58:49;;;;;;;25.13;14.03;;;6.90;99.90;;;;;;4210750;28;20053;-61
2023/01/04 05:00:51;;;;;;;22.87;14.73;;;6.90;99.90;;;;;;4211256;28;20081;-61
2023/01/04 05:02:52;;;;;;;22.07;13.90;;;6.90;99.90;;;;;;4210673;28;20090;-62
2023/01/04 05:04:53;;;;;;;24.27;13.93;;;6.90;99.90;;;;;;4211077;28;20488;-61
2023/01/04 05:06:54;;;;;;;25.87;14.93;;;6.90;99.90;;;;;;4210068;28;20032;-62
2023/01/04 05:08:55;;;;;;;22.37;14.33;;;6.90;99.90;;;;;;4210000;28;20090;-62
2023/01/04 05:10:57;;;;;;;23.00;13.33;;;6.90;99.90;;;;;;4209959;28;20032;-62
2023/01/04 05:12:58;;;;;;;21.10;13.63;;;7.00;99.90;;;;;;4210322;28;20039;-62
2023/01/04 05:14:59;;;;;;;21.10;13.67;;;6.90;99.90;;;;;;4210101;28;20036;-63
2023/01/04 05:17:00;;;;;;;21.30;13.40;;;6.90;99.90;;;;;;4210204;28;20057;-62
2023/01/04 05:19:02;;;;;;;18.50;12.10;;;7.00;99.90;;;;;;4211219;28;20078;-62
2023/01/04 05:21:03;;;;;;;19.40;12.50;;;7.00;99.90;;;;;;4210219;28;20097;-62
2023/01/04 05:23:05;;;;;;;20.07;12.63;;;6.90;99.90;;;;;;4212390;28;20076;-61
2023/01/04 05:25:08;;;;;;;21.60;12.80;;;7.00;99.90;;;;;;4210230;28;20566;-62
2023/01/04 05:27:09;;;;;;;19.53;12.27;;;7.00;99.90;;;;;;4211075;28;20424;-61
2023/01/04 05:30:49;;;;;;;22.57;13.23;;;6.90;99.90;;;;;;4210099;28;20097;-61
2023/01/04 05:31:31;;;;;;;23.53;13.17;;;7.00;99.90;;;;;;4211113;28;20032;-62
2023/01/04 05:33:33;;;;;;;17.87;11.93;;;7.00;99.90;;;;;;4209954;28;20145;-62
2023/01/04 05:35:34;;;;;;;19.73;12.00;;;7.00;99.90;;;;;;4211138;28;20101;-63
2023/01/04 05:37:35;;;;;;;25.10;12.23;;;7.00;99.90;;;;;;4210221;28;20097;-61
2023/01/04 05:39:36;;;;;;;21.20;12.57;;;7.00;99.90;;;;;;4210714;28;20062;-61
2023/01/04 05:43:57;;;;;;;23.97;12.23;;;7.00;99.90;;;;;;4194189;28;20102;-63
2023/01/04 05:45:58;;;;;;;19.70;12.17;;;7.00;99.90;;;;;;4199999;28;20020;-62
2023/01/04 05:47:59;;;;;;;20.00;12.17;;;7.00;99.90;;;;;;4209977;28;20058;-61
2023/01/04 05:50:01;;;;;;;21.97;12.67;;;7.00;99.90;;;;;;4210381;28;20089;-64
2023/01/04 05:52:02;;;;;;;20.93;13.43;;;6.90;99.90;;;;;;4209814;28;20032;-62
2023/01/04 05:54:03;;;;;;;20.57;11.90;;;6.90;99.90;;;;;;4211115;28;20032;-62
2023/01/04 05:56:05;;;;;;;19.60;11.87;;;6.90;99.90;;;;;;4210092;28;20494;-63
2023/01/04 05:58:06;;;;;;;19.37;11.83;;;7.00;99.90;;;;;;4210327;28;20040;-61
2023/01/04 06:00:09;;;;;;;21.33;12.53;;;6.90;99.90;;;;;;4209863;28;20058;-61
2023/01/04 06:02:17;;;;;;;18.23;11.87;;;6.90;99.90;;;;;;4210579;28;20044;-61
2023/01/04 06:04:19;;;;;;;19.33;11.80;;;6.90;99.90;;;;;;4209803;28;20074;-61
2023/01/04 06:06:20;;;;;;;19.17;11.73;;;6.90;99.90;;;;;;4210894;28;20024;-62
2023/01/04 06:08:21;;;;;;;18.90;11.90;;;6.90;99.90;;;;;;4210258;28;20040;-62
2023/01/04 06:10:22;;;;;;;18.77;12.03;;;6.90;99.90;;;;;;4210908;28;20032;-61
2023/01/04 06:12:24;;;;;;;19.17;11.63;;;6.90;99.90;;;;;;4210021;28;20086;-61
2023/01/04 06:14:25;;;;;;;18.70;12.40;;;6.90;99.90;;;;;;4210428;28;20040;-61
2023/01/04 06:16:26;;;;;;;21.03;14.00;;;6.90;99.90;;;;;;4210286;28;20109;-61
2023/01/04 06:18:27;;;;;;;19.00;12.37;;;6.90;99.90;;;;;;4211342;28;20020;-61
2023/01/04 06:20:28;;;;;;;21.40;13.30;;;6.90;99.90;;;;;;4213781;28;20036;-62
2023/01/04 06:22:31;;;;;;;22.60;14.03;;;7.00;99.90;;;;;;4212781;28;20040;-62
2023/01/04 06:24:33;;;;;;;19.57;12.23;;;6.90;99.90;;;;;;4213371;28;20481;-61
2023/01/04 06:26:34;;;;;;;22.53;13.57;;;7.00;99.90;;;;;;4212852;28;20036;-61
2023/01/04 06:28:35;;;;;;;17.50;11.93;;;7.00;99.90;;;;;;4214225;28;20089;-61
2023/01/04 06:30:36;;;;;;;21.13;13.80;;;6.90;99.90;;;;;;4212583;28;20020;-61
2023/01/04 06:32:37;;;;;;;19.93;13.40;;;6.90;99.90;;;;;;4213769;28;20027;-63
2023/01/04 06:34:38;;;;;;;18.30;11.63;;;6.90;99.90;;;;;;4212752;28;20040;-63
2023/01/04 06:36:40;;;;;;;19.17;12.10;;;6.90;99.90;;;;;;4213517;28;20058;-61
2023/01/04 06:38:41;;;;;;;19.50;11.50;;;6.90;99.90;;;;;;4213006;28;20089;-62
2023/01/04 06:40:42;;;;;;;17.93;11.37;;;6.90;99.90;;;;;;4213594;28;20561;-62
2023/01/04 06:42:43;;;;;;;20.60;11.83;;;6.90;99.90;;;;;;4212479;28;20036;-62
2023/01/04 06:44:44;;;;;;;13.00;10.07;;;6.90;99.90;;;;;;4213497;28;20081;-63
2023/01/04 06:46:45;;;;;;;15.63;10.80;;;6.90;99.90;;;;;;4210963;28;20587;-62
2023/01/04 06:48:47;;;;;;;19.80;11.97;;;6.90;99.90;;;;;;4212969;28;20089;-61
2023/01/04 06:50:48;;;;;;;15.47;10.70;;;6.90;99.90;;;;;;4212714;28;20068;-62
2023/01/04 06:52:49;;;;;;;15.97;11.07;;;6.90;99.90;;;;;;4212676;28;20044;-62
2023/01/04 06:54:50;;;;;;;17.30;10.87;;;6.90;99.90;;;;;;4212826;28;20032;-61
2023/01/04 06:56:51;;;;;;;21.30;11.17;;;6.90;99.90;;;;;;4211869;28;20032;-61
2023/01/04 06:58:52;;;;;;;37.23;21.90;;;6.90;99.90;;;;;;4212887;28;20028;-61
2023/01/04 07:00:55;;;;;;;26.60;16.33;;;6.90;99.90;;;;;;4211717;28;20032;-61
2023/01/04 07:02:56;;;;;;;62.97;35.80;;;6.90;99.90;;;;;;4211221;28;20628;-62
2023/01/04 07:04:57;;;;;;;80.73;48.63;;;6.90;99.90;;;;;;4210388;28;20036;-62
2023/01/04 07:06:58;;;;;;;122.33;70.93;;;6.90;99.90;;;;;;4213053;28;20376;-62
2023/01/04 07:08:59;;;;;;;139.80;89.03;;;6.90;99.90;;;;;;4212160;28;20036;-62
2023/01/04 07:11:00;;;;;;;132.17;86.10;;;6.90;99.90;;;;;;4213296;28;20048;-62
2023/01/04 07:13:01;;;;;;;93.93;67.07;;;6.90;99.90;;;;;;4211922;28;20090;-62
2023/01/04 07:15:03;;;;;;;62.40;44.67;;;6.90;99.90;;;;;;4212835;28;20028;-61
2023/01/04 07:17:05;;;;;;;55.00;39.73;;;7.00;99.90;;;;;;4211628;28;20024;-62
2023/01/04 07:19:07;;;;;;;33.97;26.50;;;6.90;99.90;;;;;;4212508;28;20480;-62
2023/01/04 07:21:08;;;;;;;22.33;16.13;;;7.00;99.90;;;;;;4212015;28;20032;-61
2023/01/04 07:23:09;;;;;;;21.23;14.33;;;7.00;99.90;;;;;;4212498;28;20520;-61
2023/01/04 07:25:11;;;;;;;17.10;12.60;;;7.00;99.90;;;;;;4211728;28;20040;-61
2023/01/04 07:27:12;;;;;;;16.93;11.90;;;7.00;99.90;;;;;;4699907;22;20060;-62
2023/01/04 07:29:14;;;;;;;18.10;13.10;;;7.00;99.90;;;;;;4212442;28;20101;-61
2023/01/04 07:31:15;;;;;;;40.87;24.70;;;7.00;99.90;;;;;;4208964;28;20181;-61
2023/01/04 07:33:16;;;;;;;34.20;21.60;;;7.00;99.90;;;;;;4213384;28;20044;-61
2023/01/04 07:35:17;;;;;;;37.63;24.23;;;7.00;99.90;;;;;;4211092;28;20438;-62
2023/01/04 07:37:19;;;;;;;30.13;21.20;;;7.00;99.90;;;;;;4212298;28;20035;-60
2023/01/04 07:39:20;;;;;;;25.73;17.83;;;7.00;99.90;;;;;;4211110;28;20050;-62
2023/01/04 07:41:22;;;;;;;37.37;23.77;;;7.10;99.90;;;;;;4212403;28;20093;-60
2023/01/04 07:43:23;;;;;;;25.33;17.67;;;7.10;99.90;;;;;;4211227;28;20036;-62
2023/01/04 07:45:25;;;;;;;23.13;14.83;;;7.10;99.90;;;;;;4211830;28;20024;-61
2023/01/04 07:47:27;;;;;;;17.87;12.80;;;7.10;99.90;;;;;;4211173;28;20069;-61
2023/01/04 07:49:28;;;;;;;16.10;11.47;;;7.20;99.90;;;;;;4212168;28;20036;-62
2023/01/04 07:51:32;;;;;;;13.30;9.93;;;7.30;99.90;;;;;;4209870;28;20036;-62
2023/01/04 07:53:34;;;;;;;17.27;10.97;;;7.30;99.90;;;;;;4211511;28;20080;-61
2023/01/04 07:55:35;;;;;;;13.33;8.90;;;7.60;99.90;;;;;;4210378;28;20460;-61
2023/01/04 07:57:36;;;;;;;12.23;8.80;;;7.80;99.90;;;;;;4211803;28;20036;-62
2023/01/04 07:59:37;;;;;;;13.13;8.90;;;8.00;99.90;;;;;;4211332;28;20316;-61
2023/01/04 08:01:39;;;;;;;14.30;9.23;;;8.10;99.90;;;;;;4211641;28;20116;-64
2023/01/04 08:03:40;;;;;;;12.17;9.00;;;8.10;99.90;;;;;;4212099;28;20028;-62
2023/01/04 08:05:41;;;;;;;14.37;9.03;;;8.20;99.90;;;;;;4209911;28;20031;-60
2023/01/04 08:07:42;;;;;;;18.73;9.10;;;8.20;99.90;;;;;;4195224;28;20472;-61
2023/01/04 08:09:43;;;;;;;36.93;11.80;;;8.20;99.90;;;;;;4193685;28;20037;-61
2023/01/04 08:11:45;;;;;;;15.20;9.30;;;8.20;99.90;;;;;;4194612;28;20036;-61
2023/01/04 08:13:46;;;;;;;22.43;8.43;;;8.20;99.90;;;;;;4193880;28;20024;-58
2023/01/04 08:15:53;;;;;;;11.93;8.23;;;8.10;99.90;;;;;;4176899;28;20037;-62
2023/01/04 08:17:55;;;;;;;19.13;8.90;;;8.30;99.90;;;;;;4194089;28;20024;-63
2023/01/04 08:19:56;;;;;;;23.17;9.37;;;8.50;99.90;;;;;;4194065;28;20402;-62
2023/01/04 08:21:58;;;;;;;22.17;8.40;;;8.80;99.90;;;;;;4193148;28;20125;-63
2023/01/04 08:23:59;;;;;;;11.20;7.67;;;8.80;99.90;;;;;;4194711;28;20048;-62
2023/01/04 08:26:05;;;;;;;11.50;8.70;;;8.90;99.90;;;;;;4193862;28;20017;-62
2023/01/04 08:28:06;;;;;;;14.40;8.00;;;8.90;99.90;;;;;;4194060;28;20052;-62
2023/01/04 08:30:08;;;;;;;15.67;9.80;;;9.20;99.90;;;;;;4193159;28;20090;-63
2023/01/04 08:32:09;;;;;;;12.77;8.60;;;9.30;99.90;;;;;;4194476;28;20070;-63
2023/01/04 08:34:10;;;;;;;13.53;7.73;;;9.50;99.90;;;;;;4193612;28;20442;-67
2023/01/04 08:36:22;;;;;;;10.87;7.10;;;9.60;99.90;;;;;;4194092;28;20347;-65
2023/01/04 08:38:23;;;;;;;10.60;7.20;;;9.70;99.90;;;;;;4199773;28;20056;-63
2023/01/04 08:40:24;;;;;;;12.00;7.90;;;9.70;99.90;;;;;;4210072;28;20396;-63
2023/01/04 08:42:25;;;;;;;11.70;7.60;;;9.60;99.90;;;;;;4210073;28;20097;-63
2023/01/04 08:44:26;;;;;;;10.87;7.77;;;9.70;99.90;;;;;;4210871;28;20105;-65
2023/01/04 08:46:27;;;;;;;13.47;8.23;;;9.80;99.90;;;;;;4193229;28;20458;-65
2023/01/04 08:48:30;;;;;;;16.17;8.60;;;10.00;99.90;;;;;;4209945;28;20093;-69
2023/01/04 08:50:31;;;;;;;13.93;9.00;;;10.10;99.90;;;;;;4211625;28;20097;-66
2023/01/04 08:52:32;;;;;;;11.00;8.83;;;10.10;99.90;;;;;;4210612;28;20052;-65
2023/01/04 08:54:33;;;;;;;12.63;7.67;;;10.30;99.90;;;;;;4211774;28;20032;-65
2023/01/04 08:56:34;;;;;;;15.53;8.47;;;10.30;99.90;;;;;;4210148;28;20048;-64
2023/01/04 08:58:36;;;;;;;12.23;7.93;;;10.30;99.90;;;;;;4211152;28;20533;-65
2023/01/04 09:00:38;;;;;;;13.50;8.10;;;10.40;99.90;;;;;;4210454;28;20406;-66
2023/01/04 09:02:39;;;;;;;37.57;9.20;;;10.60;99.90;;;;;;4208775;28;20101;-66
2023/01/04 09:04:40;;;;;;;29.13;8.80;;;10.50;99.90;;;;;;4210536;28;20371;-63
2023/01/04 09:06:41;;;;;;;17.50;8.90;;;10.70;99.90;;;;;;4210478;28;20016;-62
2023/01/04 09:08:43;;;;;;;15.23;7.20;;;10.80;99.90;;;;;;4209483;28;20416;-63
2023/01/04 09:10:44;;;;;;;17.50;7.60;;;10.70;99.90;;;;;;4208711;28;20093;-63
2023/01/04 09:12:46;;;;;;;13.23;8.33;;;10.60;99.90;;;;;;4210882;28;20046;-62
2023/01/04 09:14:47;;;;;;;16.60;8.63;;;10.60;99.90;;;;;;4191252;28;20105;-65
2023/01/04 09:16:48;;;;;;;9.90;6.93;;;10.70;99.90;;;;;;4211210;28;20020;-65
2023/01/04 09:18:50;;;;;;;10.20;6.90;;;10.70;99.90;;;;;;4209658;28;20028;-66
2023/01/04 09:20:51;;;;;;;10.67;6.63;;;10.70;99.90;;;;;;4210857;28;20044;-64
2023/01/04 09:22:52;;;;;;;11.77;7.13;;;10.80;99.90;;;;;;4209928;28;20040;-65
2023/01/04 09:24:54;;;;;;;10.53;7.00;;;10.70;99.90;;;;;;4210444;28;20044;-63
2023/01/04 09:26:55;;;;;;;8.13;6.60;;;10.70;99.90;;;;;;4209819;28;20093;-63
2023/01/04 09:28:56;;;;;;;11.83;7.50;;;10.50;99.90;;;;;;4210825;28;20398;-65
2023/01/04 09:30:57;;;;;;;8.30;6.43;;;10.60;99.90;;;;;;4209087;28;20040;-63
2023/01/04 09:32:58;;;;;;;12.70;7.20;;;10.70;99.90;;;;;;4210452;28;20028;-61
2023/01/04 09:34:59;;;;;;;10.00;7.70;;;10.80;99.90;;;;;;4210078;28;20378;-64
2023/01/04 09:37:00;;;;;;;9.07;6.70;;;10.90;99.90;;;;;;4209291;28;20235;-62
2023/01/04 09:39:01;;;;;;;15.67;7.37;;;11.00;99.90;;;;;;4210279;28;20058;-63
2023/01/04 09:41:14;;;;;;;10.37;7.27;;;11.10;99.90;;;;;;4209541;28;20032;-62
2023/01/04 09:43:19;;;;;;;13.47;7.63;;;11.10;99.90;;;;;;4210205;28;20044;-65
2023/01/04 09:45:23;;;;;;;9.30;6.80;;;11.20;99.90;;;;;;4209601;28;20157;-61
2023/01/04 09:47:37;;;;;;;10.07;7.67;;;11.10;99.90;;;;;;4210126;28;20040;-64
2023/01/04 09:49:53;;;;;;;14.13;8.10;;;11.20;99.90;;;;;;4209036;28;20426;-64
2023/01/04 09:52:10;;;;;;;13.97;8.93;;;11.00;99.90;;;;;;4210363;28;20032;-62
2023/01/04 09:54:16;;;;;;;9.33;7.07;;;10.80;99.90;;;;;;4212479;28;20096;-63
2023/01/04 09:56:25;;;;;;;10.37;7.47;;;10.60;99.90;;;;;;4211525;28;20096;-61
2023/01/04 09:58:35;;;;;;;11.00;7.13;;;10.60;99.90;;;;;;4213228;28;20070;-65
2023/01/04 10:00:44;;;;;;;13.95;8.25;;;10.50;99.90;;;;;;4213662;28;20028;-61
2023/01/04 10:02:59;;;;;;;12.87;8.27;;;10.40;99.90;;;;;;4212833;28;20124;-61
2023/01/04 10:05:02;;;;;;;13.00;7.90;;;10.40;99.90;;;;;;4212717;28;20040;-62
2023/01/04 10:07:03;;;;;;;17.53;10.30;;;10.40;99.90;;;;;;4211950;28;20036;-61
2023/01/04 10:09:11;;;;;;;14.13;9.73;;;10.40;99.90;;;;;;4213486;28;20541;-61
2023/01/04 10:11:48;;;;;;;15.03;10.43;;;10.40;99.90;;;;;;4212311;28;20402;-62
2023/01/04 10:14:17;;;;;;;13.63;8.53;;;10.40;99.90;;;;;;4213209;28;20488;-62
2023/01/04 10:16:39;;;;;;;14.93;8.47;;;10.50;99.90;;;;;;4213140;28;20032;-62
2023/01/04 10:18:50;;;;;;;10.53;7.83;;;10.40;99.90;;;;;;4212466;28;20050;-62
2023/01/04 10:21:09;;;;;;;;;;;10.50;99.90;;;;;;4213249;28;20044;-61
2023/01/04 10:23:31;;;;;;;25.80;8.97;;;10.40;99.90;;;;;;4212399;28;20416;-62
2023/01/04 10:25:46;;;;;;;17.93;7.47;;;10.50;99.90;;;;;;4213521;28;20024;-62
2023/01/04 10:27:56;;;;;;;22.70;6.83;;;10.60;99.90;;;;;;4212566;28;20109;-62
2023/01/04 10:30:31;;;;;;;10.30;6.78;;;10.60;99.90;;;;;;4213580;28;20036;-62
2023/01/04 10:32:44;;;;;;;17.80;7.80;;;10.70;99.90;;;;;;4212213;28;20048;-63
2023/01/04 10:34:46;;;;;;;16.47;6.83;;;10.80;99.90;;;;;;4213337;28;20132;-62
2023/01/04 10:36:50;;;;;;;16.30;7.80;;;10.80;99.90;;;;;;4212310;28;20038;-61
2023/01/04 10:39:17;;;;;;;13.63;7.43;;;10.90;99.90;;;;;;4212793;28;20062;-62
2023/01/04 10:41:23;;;;;;;13.37;6.27;;;11.00;99.90;;;;;;4211635;28;20086;-62
2023/01/04 10:43:57;;;;;;;16.10;5.87;;;11.10;99.90;;;;;;4212505;28;20105;-62
2023/01/04 10:46:25;;;;;;;12.30;5.63;;;11.10;99.90;;;;;;4212235;28;20094;-61
2023/01/04 10:48:32;;;;;;;7.20;5.67;;;11.00;99.90;;;;;;4211599;28;20040;-62
2023/01/04 10:50:43;;;;;;;8.50;5.80;;;11.00;99.90;;;;;;4211911;28;20066;-62
2023/01/04 10:52:58;;;;;;;9.13;5.90;;;11.00;99.90;;;;;;4212482;28;20074;-66
2023/01/04 10:55:02;;;;;;;9.87;6.47;;;11.00;99.90;;;;;;4211564;28;20049;-62
2023/01/04 10:57:24;;;;;;;11.03;6.80;;;11.10;99.90;;;;;;4211894;28;20031;-62
2023/01/04 10:59:59;;;;;;;54.50;10.03;;;11.00;99.90;;;;;;4212466;28;20523;-65
2023/01/04 11:02:06;;;;;;;16.53;5.70;;;10.80;99.90;;;;;;4206524;28;20047;-66
2023/01/04 11:04:35;;;;;;;29.83;8.00;;;10.80;99.90;;;;;;4212647;28;20024;-65
2023/01/04 11:06:51;;;;;;;32.13;7.00;;;10.70;99.90;;;;;;4211400;28;20032;-63
2023/01/04 11:08:58;;;;;;;41.37;9.67;;;10.80;99.90;;;;;;4213127;28;20032;-64
2023/01/04 11:11:11;;;;;;;23.57;6.87;;;10.90;99.90;;;;;;4211662;28;20475;-62
2023/01/04 11:13:12;;;;;;;14.33;5.13;;;10.80;99.90;;;;;;4212042;28;20048;-63
2023/01/04 11:15:13;;;;;;;7.43;4.53;;;10.70;99.90;;;;;;4211554;28;20028;-63
2023/01/04 11:17:14;;;;;;;7.13;3.87;;;10.70;99.90;;;;;;4211786;28;20097;-64
2023/01/04 11:19:16;;;;;;;7.70;4.17;;;10.70;99.90;;;;;;4210666;28;20081;-62
2023/01/04 11:21:21;;;;;;;5.77;3.83;;;10.60;99.90;;;;;;4212797;28;20422;-61
2023/01/04 11:23:22;;;;;;;6.40;3.67;;;10.50;99.90;;;;;;4211719;28;20089;-61
2023/01/04 11:25:25;;;;;;;7.20;3.50;;;10.40;99.90;;;;;;4212481;28;20032;-62
2023/01/04 11:27:30;;;;;;;6.17;3.40;;;10.30;99.90;;;;;;4212216;28;20086;-61